createdAt,value
2019-04-21T00:02:06.450Z,13.10
2019-04-21T00:04:53.904Z,13.10
2019-04-21T00:07:31.618Z,13.00
2019-04-21T00:10:05.796Z,13.00
2019-04-21T00:12:34.487Z,13.00
2019-04-21T00:15:02.225Z,13.00
2019-04-21T00:17:24.879Z,12.90
2019-04-21T00:20:11.432Z,13.00
2019-04-21T00:22:44.263Z,13.00
2019-04-21T00:25:18.111Z,12.90
2019-04-21T00:27:52.769Z,12.90
2019-04-21T00:30:32.935Z,12.90
2019-04-21T00:32:54.117Z,12.80
2019-04-21T00:35:19.615Z,12.80
2019-04-21T00:38:08.279Z,12.80
2019-04-21T00:40:41.507Z,12.80
2019-04-21T00:43:07.807Z,12.80
2019-04-21T00:45:39.211Z,12.70
2019-04-21T00:48:25.777Z,12.60
2019-04-21T00:51:12.326Z,12.60
2019-04-21T00:53:44.143Z,12.60
2019-04-21T00:56:11.686Z,12.60
2019-04-21T00:58:39.583Z,12.60
2019-04-21T01:01:12.558Z,12.60
2019-04-21T01:03:47.506Z,12.50
2019-04-21T01:06:22.745Z,12.50
2019-04-21T01:08:48.928Z,12.50
2019-04-21T01:11:29.839Z,12.40
2019-04-21T01:13:58.276Z,12.40
2019-04-21T01:16:33.479Z,12.30
2019-04-21T01:19:05.310Z,12.30
2019-04-21T01:21:16.462Z,12.30
2019-04-21T01:23:48.626Z,12.30
2019-04-21T01:26:32.873Z,12.30
2019-04-21T01:29:13.273Z,12.20
2019-04-21T01:31:42.294Z,12.20
2019-04-21T01:34:27.455Z,12.20
2019-04-21T01:36:46.152Z,12.20
2019-04-21T01:39:29.449Z,12.20
2019-04-21T01:41:57.343Z,12.20
2019-04-21T01:44:37.639Z,12.30
2019-04-21T01:46:58.630Z,12.30
2019-04-21T01:49:33.335Z,12.40
2019-04-21T01:52:34.408Z,12.40
2019-04-21T01:55:06.253Z,12.50
2019-04-21T01:58:02.860Z,12.50
2019-04-21T02:00:58.280Z,12.40
2019-04-21T02:08:44.925Z,12.00
2019-04-21T02:11:16.999Z,11.90
2019-04-21T02:13:57.234Z,11.80
2019-04-21T02:16:23.883Z,11.70
2019-04-21T02:18:55.229Z,11.60
2019-04-21T02:21:22.134Z,11.60
2019-04-21T02:24:07.146Z,11.60
2019-04-21T02:26:53.872Z,11.60
2019-04-21T02:29:19.581Z,11.60
2019-04-21T02:32:00.082Z,11.50
2019-04-21T02:34:27.395Z,11.50
2019-04-21T02:37:36.759Z,11.40
2019-04-21T02:39:43.640Z,11.40
2019-04-21T02:42:20.044Z,11.40
2019-04-21T02:44:43.011Z,11.40
2019-04-21T02:47:16.720Z,11.40
2019-04-21T02:49:53.567Z,11.50
2019-04-21T02:57:22.903Z,11.80
2019-04-21T03:00:06.433Z,12.00
2019-04-21T03:02:54.598Z,12.10
2019-04-21T03:06:02.647Z,12.00
2019-04-21T03:11:09.077Z,11.80
2019-04-21T03:13:50.747Z,11.80
2019-04-21T03:18:48.539Z,11.50
2019-04-21T03:23:56.214Z,11.20
2019-04-21T03:29:03.325Z,11.20
2019-04-21T03:31:49.663Z,11.20
2019-04-21T03:39:03.052Z,11.20
2019-04-21T03:41:48.821Z,11.20
2019-04-21T03:44:16.849Z,11.20
2019-04-21T03:47:03.422Z,11.20
2019-04-21T03:49:28.964Z,11.20
2019-04-21T03:52:09.066Z,11.10
2019-04-21T03:54:32.532Z,11.10
2019-04-21T03:57:21.810Z,11.00
2019-04-21T03:59:40.832Z,10.90
2019-04-21T04:02:28.355Z,10.90
2019-04-21T04:05:03.385Z,10.90
2019-04-21T04:12:48.718Z,10.80
2019-04-21T04:15:20.508Z,10.90
2019-04-21T04:17:47.721Z,10.80
2019-04-21T04:23:08.057Z,10.90
2019-04-21T04:25:27.340Z,11.00
2019-04-21T04:28:09.858Z,11.20
2019-04-21T04:30:39.535Z,11.60
2019-04-21T04:33:20.765Z,11.80
2019-04-21T04:35:56.086Z,11.90
2019-04-21T04:38:23.389Z,11.90
2019-04-21T04:46:07.166Z,11.60
2019-04-21T04:48:35.364Z,11.40
2019-04-21T04:51:33.387Z,11.30
2019-04-21T04:53:44.281Z,11.30
2019-04-21T04:56:25.490Z,11.20
2019-04-21T04:59:18.598Z,11.10
2019-04-21T05:01:34.955Z,11.00
2019-04-21T05:04:02.579Z,11.00
2019-04-21T05:09:07.820Z,11.20
2019-04-21T05:11:44.523Z,11.40
2019-04-21T05:24:07.496Z,12.00
2019-04-21T05:26:42.271Z,12.00
2019-04-21T05:29:11.003Z,12.10
2019-04-21T05:32:00.487Z,12.20
2019-04-21T05:34:36.021Z,12.30
2019-04-21T05:37:28.918Z,12.20
2019-04-21T05:40:10.639Z,12.20
2019-04-21T05:42:39.918Z,12.20
2019-04-21T05:45:38.192Z,12.30
2019-04-21T05:48:13.245Z,12.30
2019-04-21T05:50:32.554Z,12.50
2019-04-21T05:53:17.627Z,12.70
2019-04-21T05:55:50.282Z,12.90
2019-04-21T05:58:14.629Z,13.10
2019-04-21T06:03:30.626Z,13.20
2019-04-21T06:06:10.773Z,13.20
2019-04-21T06:08:38.696Z,13.30
2019-04-21T06:11:07.567Z,13.30
2019-04-21T06:13:48.164Z,13.40
2019-04-21T06:16:13.995Z,13.50
2019-04-21T06:18:52.956Z,13.60
2019-04-21T06:21:18.926Z,13.70
2019-04-21T06:23:50.001Z,13.70
2019-04-21T06:29:02.779Z,13.80
2019-04-21T06:34:19.868Z,14.00
2019-04-21T06:37:01.446Z,14.00
2019-04-21T06:41:59.820Z,14.20
2019-04-21T06:44:33.713Z,14.20
2019-04-21T06:47:13.892Z,14.20
2019-04-21T06:49:40.119Z,14.20
2019-04-21T06:52:19.385Z,14.20
2019-04-21T06:54:50.785Z,14.30
2019-04-21T06:57:16.582Z,14.30
2019-04-21T06:59:51.053Z,14.40
2019-04-21T07:05:00.538Z,14.60
2019-04-21T07:07:33.851Z,14.60
2019-04-21T07:10:10.284Z,14.60
2019-04-21T07:12:34.302Z,14.60
2019-04-21T07:15:13.507Z,14.70
2019-04-21T07:17:40.285Z,14.70
2019-04-21T07:20:18.844Z,14.70
2019-04-21T07:22:50.558Z,14.70
2019-04-21T07:25:22.073Z,14.70
2019-04-21T07:27:58.043Z,14.70
2019-04-21T07:30:37.764Z,14.80
2019-04-21T07:33:24.007Z,14.80
2019-04-21T07:35:37.668Z,14.80
2019-04-21T07:38:12.071Z,14.90
2019-04-21T07:40:41.699Z,14.90
2019-04-21T07:43:16.669Z,14.90
2019-04-21T07:45:55.460Z,14.90
2019-04-21T07:48:37.773Z,14.90
2019-04-21T07:51:25.435Z,14.90
2019-04-21T07:54:13.348Z,15.00
2019-04-21T07:56:19.931Z,14.90
2019-04-21T07:59:02.082Z,14.90
2019-04-21T08:01:40.124Z,14.90
2019-04-21T08:04:33.218Z,14.90
2019-04-21T08:06:46.064Z,14.90
2019-04-21T08:09:18.312Z,14.90
2019-04-21T08:11:56.160Z,14.90
2019-04-21T08:14:31.279Z,15.00
2019-04-21T08:17:03.221Z,15.00
2019-04-21T08:19:38.306Z,15.00
2019-04-21T08:22:11.449Z,15.00
2019-04-21T08:24:47.015Z,15.00
2019-04-21T08:27:23.518Z,14.90
2019-04-21T08:29:51.633Z,14.90
2019-04-21T08:32:31.683Z,15.00
2019-04-21T08:35:14.718Z,15.00
2019-04-21T08:37:32.144Z,15.20
2019-04-21T08:42:41.542Z,15.30
2019-04-21T08:45:15.130Z,15.30
2019-04-21T08:47:45.764Z,15.30
2019-04-21T08:50:15.282Z,15.40
2019-04-21T08:52:56.168Z,15.50
2019-04-21T08:55:49.015Z,15.50
2019-04-21T08:58:52.866Z,15.50
2019-04-21T09:01:50.355Z,15.50
2019-04-21T09:04:18.511Z,15.40
2019-04-21T09:09:31.961Z,15.30
2019-04-21T09:12:01.632Z,15.20
2019-04-21T09:14:37.083Z,15.30
2019-04-21T09:17:00.094Z,15.30
2019-04-21T09:22:13.302Z,15.40
2019-04-21T09:24:46.858Z,15.40
2019-04-21T09:27:18.390Z,15.50
2019-04-21T09:29:39.289Z,15.50
2019-04-21T09:32:14.613Z,15.40
2019-04-21T09:34:43.482Z,15.40
2019-04-21T09:37:24.010Z,15.60
2019-04-21T09:39:48.833Z,15.60
2019-04-21T09:42:19.715Z,15.80
2019-04-21T09:44:55.238Z,16.00
2019-04-21T09:47:33.585Z,16.10
2019-04-21T09:49:56.296Z,16.20
2019-04-21T09:52:38.833Z,16.20
2019-04-21T09:55:07.054Z,16.30
2019-04-21T09:57:43.313Z,16.40
2019-04-21T10:00:15.121Z,16.50
2019-04-21T10:02:53.467Z,16.60
2019-04-21T10:05:17.065Z,16.70
2019-04-21T10:07:48.925Z,16.70
2019-04-21T10:10:21.367Z,16.70
2019-04-21T10:12:53.897Z,16.60
2019-04-21T10:15:27.845Z,16.50
2019-04-21T10:18:00.558Z,16.40
2019-04-21T10:20:32.915Z,16.20
2019-04-21T10:23:05.039Z,16.10
2019-04-21T10:25:36.826Z,16.10
2019-04-21T10:28:08.194Z,16.30
2019-04-21T10:30:40.751Z,16.60
2019-04-21T10:33:12.524Z,16.70
2019-04-21T10:35:43.893Z,16.90
2019-04-21T10:38:26.076Z,17.10
2019-04-21T10:40:49.627Z,17.20
2019-04-21T10:43:23.694Z,17.10
2019-04-21T10:45:55.026Z,17.00
2019-04-21T10:48:26.282Z,17.00
2019-04-21T10:50:57.530Z,17.00
2019-04-21T10:53:32.081Z,17.10
2019-04-21T10:56:17.572Z,17.30
2019-04-21T10:58:40.474Z,17.50
2019-04-21T11:01:14.407Z,17.50
2019-04-21T11:04:00.505Z,17.60
2019-04-21T11:06:32.687Z,17.80
2019-04-21T11:09:07.284Z,17.80
2019-04-21T11:11:40.038Z,17.80
2019-04-21T11:14:11.868Z,17.60
2019-04-21T11:16:45.842Z,17.60
2019-04-21T11:19:15.923Z,17.70
2019-04-21T11:21:47.121Z,17.60
2019-04-21T11:24:18.520Z,17.40
2019-04-21T11:26:51.981Z,17.40
2019-04-21T11:29:26.136Z,17.60
2019-04-21T11:31:57.079Z,17.80
2019-04-21T11:34:29.261Z,18.10
2019-04-21T11:37:01.845Z,18.30
2019-04-21T11:39:42.087Z,18.30
2019-04-21T11:42:15.626Z,18.20
2019-04-21T11:44:49.425Z,18.20
2019-04-21T11:47:26.352Z,18.10
2019-04-21T11:49:58.989Z,17.90
2019-04-21T11:52:31.042Z,17.70
2019-04-21T11:55:04.658Z,17.70
2019-04-21T11:57:41.598Z,17.70
2019-04-21T12:00:11.386Z,17.70
2019-04-21T12:02:43.702Z,17.50
2019-04-21T12:05:15.199Z,17.30
2019-04-21T12:07:47.211Z,17.10
2019-04-21T12:10:19.631Z,16.90
2019-04-21T12:12:51.121Z,16.80
2019-04-21T12:15:22.997Z,16.80
2019-04-21T12:17:54.383Z,16.80
2019-04-21T12:20:26.886Z,16.80
2019-04-21T12:22:58.938Z,16.90
2019-04-21T12:25:34.716Z,16.90
2019-04-21T12:28:06.026Z,16.80
2019-04-21T12:30:37.824Z,16.80
2019-04-21T12:33:16.186Z,16.80
2019-04-21T12:35:48.170Z,16.70
2019-04-21T12:38:30.104Z,16.80
2019-04-21T12:40:52.792Z,16.80
2019-04-21T12:43:24.587Z,16.90
2019-04-21T12:45:56.241Z,16.90
2019-04-21T12:48:29.627Z,17.00
2019-04-21T12:51:01.895Z,16.90
2019-04-21T12:53:34.159Z,16.80
2019-04-21T12:56:07.444Z,16.80
2019-04-21T12:58:39.615Z,16.70
2019-04-21T13:01:10.990Z,16.60
2019-04-21T13:03:43.783Z,16.50
2019-04-21T13:06:16.215Z,16.40
2019-04-21T13:08:54.534Z,16.40
2019-04-21T13:11:21.746Z,16.50
2019-04-21T13:13:53.658Z,16.80
2019-04-21T13:16:25.606Z,16.90
2019-04-21T13:18:57.618Z,17.00
2019-04-21T13:21:30.069Z,17.00
2019-04-21T13:24:01.375Z,16.90
2019-04-21T13:26:42.910Z,16.80
2019-04-21T13:29:06.471Z,16.70
2019-04-21T13:31:38.408Z,16.60
2019-04-21T13:34:10.602Z,16.60
2019-04-21T13:36:43.648Z,16.60
2019-04-21T13:39:55.264Z,16.60
2019-04-21T13:42:18.418Z,16.60
2019-04-21T13:44:41.565Z,16.70
2019-04-21T13:47:14.441Z,16.80
2019-04-21T13:49:47.521Z,16.70
2019-04-21T13:52:20.499Z,16.80
2019-04-21T13:54:52.056Z,16.80
2019-04-21T13:57:23.343Z,16.80
2019-04-21T13:59:55.135Z,16.80
2019-04-21T14:02:26.885Z,16.80
2019-04-21T14:04:59.143Z,16.70
2019-04-21T14:07:30.531Z,16.60
2019-04-21T14:10:06.593Z,16.70
2019-04-21T14:12:36.088Z,16.60
2019-04-21T14:15:08.406Z,16.50
2019-04-21T14:17:40.175Z,16.30
2019-04-21T14:20:13.215Z,16.30
2019-04-21T14:22:44.729Z,16.30
2019-04-21T14:25:17.473Z,16.30
2019-04-21T14:27:51.912Z,16.40
2019-04-21T14:30:24.467Z,16.50
2019-04-21T14:32:56.192Z,16.60
2019-04-21T14:35:27.474Z,16.60
2019-04-21T14:38:00.514Z,16.50
2019-04-21T14:40:34.962Z,16.50
2019-04-21T14:43:04.257Z,16.30
2019-04-21T14:45:45.144Z,16.30
2019-04-21T14:48:39.214Z,16.30
2019-04-21T14:51:23.054Z,16.20
2019-04-21T14:54:20.551Z,16.10
2019-04-21T14:56:53.429Z,16.10
2019-04-21T14:59:31.160Z,16.30
2019-04-21T15:02:03.932Z,16.30
2019-04-21T15:04:35.915Z,16.20
2019-04-21T15:07:15.011Z,16.20
2019-04-21T15:09:58.794Z,16.10
2019-04-21T15:12:21.378Z,16.00
2019-04-21T15:14:56.014Z,16.00
2019-04-21T15:17:35.807Z,16.00
2019-04-21T15:20:12.219Z,15.90
2019-04-21T15:22:42.022Z,15.90
2019-04-21T15:25:14.201Z,15.80
2019-04-21T15:27:46.650Z,15.80
2019-04-21T15:30:20.643Z,15.70
2019-04-21T15:32:52.787Z,15.70
2019-04-21T15:35:25.296Z,15.70
2019-04-21T15:37:58.038Z,15.70
2019-04-21T15:40:40.059Z,15.70
2019-04-21T15:43:02.469Z,15.60
2019-04-21T15:45:34.938Z,15.60
2019-04-21T15:48:08.206Z,15.60
2019-04-21T15:50:41.812Z,15.60
2019-04-21T15:53:15.978Z,15.60
2019-04-21T15:56:10.999Z,15.70
2019-04-21T15:59:08.388Z,15.70
2019-04-21T16:01:52.832Z,15.70
2019-04-21T16:04:25.091Z,15.70
2019-04-21T16:06:57.452Z,15.70
2019-04-21T16:09:31.218Z,15.70
2019-04-21T16:12:03.983Z,15.70
2019-04-21T16:14:36.474Z,15.70
2019-04-21T16:17:09.548Z,15.70
2019-04-21T16:19:41.687Z,15.70
2019-04-21T16:22:14.774Z,15.70
2019-04-21T16:24:47.709Z,15.70
2019-04-21T16:27:19.692Z,15.80
2019-04-21T16:29:52.420Z,15.80
2019-04-21T16:32:25.882Z,15.80
2019-04-21T16:35:03.273Z,15.80
2019-04-21T16:37:31.860Z,15.80
2019-04-21T16:40:03.729Z,15.80
2019-04-21T16:42:36.272Z,15.80
2019-04-21T16:45:10.801Z,15.90
2019-04-21T16:47:42.462Z,15.80
2019-04-21T16:50:15.669Z,15.70
2019-04-21T16:52:54.480Z,15.70
2019-04-21T16:55:32.947Z,15.80
2019-04-21T16:58:25.691Z,15.80
2019-04-21T17:01:08.578Z,15.80
2019-04-21T17:03:36.745Z,15.80
2019-04-21T17:06:11.049Z,15.80
2019-04-21T17:08:45.058Z,15.70
2019-04-21T17:11:25.927Z,15.70
2019-04-21T17:13:54.141Z,15.70
2019-04-21T17:16:51.495Z,15.80
2019-04-21T17:19:11.356Z,15.90
2019-04-21T17:21:34.209Z,15.90
2019-04-21T17:24:06.467Z,15.90
2019-04-21T17:26:41.144Z,15.90
2019-04-21T17:29:12.336Z,15.90
2019-04-21T17:31:45.674Z,15.90
2019-04-21T17:34:21.787Z,15.90
2019-04-21T17:36:50.942Z,15.80
2019-04-21T17:39:22.873Z,15.80
2019-04-21T17:42:05.669Z,15.80
2019-04-21T17:44:27.730Z,15.90
2019-04-21T17:47:03.892Z,15.90
2019-04-21T17:49:32.932Z,15.90
2019-04-21T17:52:42.857Z,15.90
2019-04-21T17:55:25.457Z,15.90
2019-04-21T17:58:09.705Z,15.90
2019-04-21T18:01:05.294Z,16.00
2019-04-21T18:03:29.584Z,16.00
2019-04-21T18:05:50.349Z,16.00
2019-04-21T18:08:29.450Z,16.10
2019-04-21T18:10:54.345Z,16.10
2019-04-21T18:13:22.674Z,16.10
2019-04-21T18:16:03.741Z,16.10
2019-04-21T18:18:26.542Z,16.10
2019-04-21T18:21:04.853Z,16.20
2019-04-21T18:23:57.421Z,16.20
2019-04-21T18:26:35.023Z,16.30
2019-04-21T18:28:59.106Z,16.40
2019-04-21T18:31:33.806Z,16.50
2019-04-21T18:34:30.571Z,16.70
2019-04-21T18:37:12.299Z,16.80
2019-04-21T18:39:57.558Z,16.90
2019-04-21T18:42:42.218Z,16.90
2019-04-21T18:45:57.203Z,16.90
2019-04-21T18:48:22.186Z,17.00
2019-04-21T18:51:20.228Z,16.90
2019-04-21T18:54:17.384Z,17.00
2019-04-21T18:56:29.704Z,16.90
2019-04-21T18:59:02.472Z,17.00
2019-04-21T19:01:36.645Z,17.00
2019-04-21T19:04:14.353Z,17.10
2019-04-21T19:07:03.071Z,17.10
2019-04-21T19:09:57.300Z,17.10
2019-04-21T19:12:19.540Z,17.10
2019-04-21T19:14:40.151Z,17.10
2019-04-21T19:19:54.364Z,17.10
2019-04-21T19:22:20.426Z,17.10
2019-04-21T19:24:59.447Z,17.00
2019-04-21T19:27:27.242Z,17.00
2019-04-21T19:30:21.697Z,17.00
2019-04-21T19:32:33.484Z,16.90
2019-04-21T19:34:57.075Z,17.00
2019-04-21T19:37:27.860Z,17.00
2019-04-21T19:40:07.957Z,17.00
2019-04-21T19:42:39.796Z,17.00
2019-04-21T19:45:17.648Z,17.00
2019-04-21T19:47:55.597Z,17.00
2019-04-21T19:50:32.290Z,17.10
2019-04-21T19:52:52.000Z,17.20
2019-04-21T19:55:16.140Z,17.20
2019-04-21T19:57:49.258Z,17.20
2019-04-21T20:00:22.404Z,17.20
2019-04-21T20:02:56.573Z,17.30
2019-04-21T20:05:39.048Z,17.30
2019-04-21T20:08:23.630Z,17.30
2019-04-21T20:11:04.043Z,17.20
2019-04-21T20:13:46.659Z,17.20
2019-04-21T20:18:32.505Z,17.10
2019-04-21T20:20:58.351Z,17.20
2019-04-21T20:23:32.756Z,17.10
2019-04-21T20:26:10.096Z,17.10
2019-04-21T20:28:54.437Z,17.10
2019-04-21T20:31:31.530Z,17.10
2019-04-21T20:34:11.311Z,17.20
2019-04-21T20:36:41.810Z,17.10
2019-04-21T20:39:05.649Z,17.10
2019-04-21T20:41:44.007Z,17.20
2019-04-21T20:44:23.062Z,17.20
2019-04-21T20:46:54.501Z,17.20
2019-04-21T20:49:21.739Z,17.20
2019-04-21T20:52:10.384Z,17.20
2019-04-21T20:54:40.781Z,17.30
2019-04-21T21:01:20.198Z,17.30
2019-04-21T21:03:35.239Z,17.70
2019-04-21T21:06:08.275Z,17.50
2019-04-21T21:08:45.373Z,17.50
2019-04-21T21:11:21.292Z,17.40
2019-04-21T21:13:53.674Z,17.40
2019-04-21T21:16:29.213Z,17.40
2019-04-21T21:19:11.633Z,17.30
2019-04-21T21:21:32.492Z,17.30
2019-04-21T21:24:07.077Z,17.30
2019-04-21T21:26:44.098Z,17.30
2019-04-21T21:29:06.677Z,17.20
2019-04-21T21:31:47.688Z,17.20
2019-04-21T21:34:27.539Z,17.10
2019-04-21T21:36:54.007Z,17.10
2019-04-21T21:39:31.840Z,17.10
2019-04-21T21:41:49.793Z,16.90
2019-04-21T21:44:21.211Z,16.90
2019-04-21T21:47:00.560Z,16.90
2019-04-21T21:49:39.409Z,16.90
2019-04-21T21:52:06.932Z,16.80
2019-04-21T21:54:31.854Z,16.90
2019-04-21T21:57:04.749Z,16.80
2019-04-21T21:59:39.669Z,16.80
2019-04-21T22:02:17.125Z,16.80
2019-04-21T22:04:54.684Z,16.80
2019-04-21T22:07:22.547Z,16.70
2019-04-21T22:09:50.545Z,16.70
2019-04-21T22:12:23.845Z,16.60
2019-04-21T22:14:57.447Z,16.60
2019-04-21T22:17:44.646Z,16.50
2019-04-21T22:20:21.499Z,16.50
2019-04-21T22:22:44.809Z,16.50
2019-04-21T22:25:15.333Z,16.40
2019-04-21T22:27:43.378Z,16.30
2019-04-21T22:30:24.746Z,16.20
2019-04-21T22:32:55.410Z,16.10
2019-04-21T22:35:30.049Z,16.10
2019-04-21T22:38:13.985Z,16.00
2019-04-21T22:40:47.171Z,15.90
2019-04-21T22:43:11.693Z,15.90
2019-04-21T22:45:35.649Z,15.80
2019-04-21T22:48:14.324Z,15.80
2019-04-21T22:50:42.362Z,15.80
2019-04-21T22:53:14.321Z,15.70
2019-04-21T22:55:49.540Z,15.60
2019-04-21T22:58:25.712Z,15.50
2019-04-21T23:00:56.415Z,15.50
2019-04-21T23:03:25.199Z,15.50
2019-04-21T23:06:11.788Z,15.50
2019-04-21T23:08:41.736Z,15.40
2019-04-21T23:11:16.103Z,15.40
2019-04-21T23:14:10.320Z,15.40
2019-04-21T23:16:41.849Z,15.30
2019-04-21T23:19:30.822Z,15.20
2019-04-21T23:22:02.416Z,15.10
2019-04-21T23:24:40.383Z,15.10
2019-04-21T23:27:02.649Z,15.00
2019-04-21T23:29:47.880Z,14.90
2019-04-21T23:32:13.147Z,14.80
2019-04-21T23:34:36.540Z,14.80
2019-04-21T23:37:10.570Z,14.70
2019-04-21T23:39:37.558Z,14.70
2019-04-21T23:42:09.212Z,14.70
2019-04-21T23:44:45.914Z,14.60
2019-04-21T23:47:29.245Z,14.60
2019-04-21T23:49:57.650Z,14.60
2019-04-21T23:52:19.872Z,14.60
2019-04-21T23:54:53.532Z,14.50
2019-04-21T23:57:32.595Z,14.40
